createdAt,value
2019-01-15T00:00:50.112Z,21.20
2019-01-15T00:03:17.501Z,13.20
2019-01-15T00:05:44.915Z,18.10
2019-01-15T00:08:13.771Z,14.50
2019-01-15T00:10:41.258Z,20.35
2019-01-15T00:13:08.853Z,19.70
2019-01-15T00:15:36.205Z,12.20
2019-01-15T00:18:03.571Z,19.23
2019-01-15T00:20:31.030Z,21.37
2019-01-15T00:22:58.533Z,20.23
2019-01-15T00:25:28.659Z,17.42
2019-01-15T00:27:56.010Z,15.35
2019-01-15T00:30:23.369Z,17.85
2019-01-15T00:32:50.745Z,17.73
2019-01-15T00:35:20.221Z,16.52
2019-01-15T00:37:47.605Z,23.12
2019-01-15T00:40:15.715Z,20.68
2019-01-15T00:42:43.065Z,15.38
2019-01-15T00:45:10.673Z,21.10
2019-01-15T00:47:38.955Z,22.10
2019-01-15T00:50:08.181Z,26.12
2019-01-15T00:52:35.542Z,22.35
2019-01-15T00:55:03.846Z,24.15
2019-01-15T00:57:31.208Z,19.17
2019-01-15T00:59:58.625Z,21.77
2019-01-15T01:02:26.012Z,24.80
2019-01-15T01:04:53.482Z,24.35
2019-01-15T01:07:20.858Z,24.20
2019-01-15T01:09:48.235Z,22.70
2019-01-15T01:12:22.049Z,25.72
2019-01-15T01:14:44.740Z,20.55
2019-01-15T01:17:12.095Z,19.95
2019-01-15T01:19:39.476Z,25.77
2019-01-15T01:22:07.042Z,22.25
2019-01-15T01:24:34.396Z,27.37
2019-01-15T01:27:01.744Z,14.93
2019-01-15T01:29:29.113Z,23.25
2019-01-15T01:31:56.461Z,23.12
2019-01-15T01:34:23.811Z,25.30
2019-01-15T01:36:51.269Z,23.40
2019-01-15T01:39:18.727Z,20.97
2019-01-15T01:41:46.098Z,22.02
2019-01-15T01:44:13.369Z,29.25
2019-01-15T01:46:41.921Z,24.15
2019-01-15T01:49:09.287Z,22.60
2019-01-15T01:51:37.960Z,22.75
2019-01-15T01:54:05.383Z,19.73
2019-01-15T01:56:32.670Z,21.80
2019-01-15T01:59:00.032Z,19.95
2019-01-15T02:01:27.416Z,18.75
2019-01-15T02:03:54.773Z,17.62
2019-01-15T02:06:22.162Z,21.42
2019-01-15T02:08:49.525Z,17.75
2019-01-15T02:11:17.092Z,28.75
2019-01-15T02:13:44.850Z,18.85
2019-01-15T02:16:12.364Z,20.10
2019-01-15T02:18:39.728Z,28.90
2019-01-15T02:21:07.340Z,17.73
2019-01-15T02:23:34.700Z,18.85
2019-01-15T02:26:01.986Z,24.12
2019-01-15T02:28:29.404Z,21.55
2019-01-15T02:30:56.699Z,16.85
2019-01-15T02:33:24.064Z,21.00
2019-01-15T02:35:51.604Z,17.50
2019-01-15T02:38:18.958Z,21.42
2019-01-15T02:40:46.320Z,22.45
2019-01-15T02:43:13.738Z,19.57
2019-01-15T02:45:41.192Z,18.48
2019-01-15T02:48:08.544Z,17.25
2019-01-15T02:50:35.921Z,17.77
2019-01-15T02:53:03.257Z,21.93
2019-01-15T02:55:30.693Z,18.95
2019-01-15T02:57:58.174Z,22.58
2019-01-15T03:00:25.736Z,20.82
2019-01-15T03:02:53.318Z,21.37
2019-01-15T03:05:20.722Z,16.97
2019-01-15T03:07:48.297Z,21.48
2019-01-15T03:10:16.871Z,19.23
2019-01-15T03:12:55.052Z,21.37
2019-01-15T03:15:16.775Z,19.95
2019-01-15T03:17:44.238Z,20.05
2019-01-15T03:20:11.636Z,22.35
2019-01-15T03:22:39.006Z,22.67
2019-01-15T03:25:07.343Z,19.05
2019-01-15T03:27:34.728Z,24.07
2019-01-15T03:30:02.018Z,18.15
2019-01-15T03:32:29.373Z,16.37
2019-01-15T03:34:56.681Z,21.87
2019-01-15T03:37:24.036Z,21.82
2019-01-15T03:39:51.398Z,26.90
2019-01-15T03:42:18.812Z,21.45
2019-01-15T03:44:46.256Z,21.15
2019-01-15T03:47:13.633Z,20.23
2019-01-15T03:49:41.040Z,23.27
2019-01-15T03:52:08.416Z,22.75
2019-01-15T03:54:35.750Z,22.70
2019-01-15T03:57:03.124Z,20.40
2019-01-15T03:59:30.516Z,24.25
2019-01-15T04:01:57.986Z,23.35
2019-01-15T04:04:25.358Z,21.40
2019-01-15T04:06:52.766Z,13.32
2019-01-15T04:09:20.101Z,21.05
2019-01-15T04:11:47.457Z,21.85
2019-01-15T04:14:14.824Z,16.73
2019-01-15T04:16:42.215Z,16.85
2019-01-15T04:19:09.599Z,19.87
2019-01-15T04:21:37.031Z,18.45
2019-01-15T04:24:04.457Z,20.62
2019-01-15T04:26:31.859Z,15.75
2019-01-15T04:28:59.296Z,18.40
2019-01-15T04:31:26.679Z,19.70
2019-01-15T04:33:54.115Z,19.10
2019-01-15T04:36:21.524Z,19.65
2019-01-15T04:38:48.895Z,23.57
2019-01-15T04:41:18.382Z,17.35
2019-01-15T04:43:45.758Z,17.23
2019-01-15T04:46:13.139Z,22.70
2019-01-15T04:48:40.520Z,23.02
2019-01-15T04:51:07.874Z,22.65
2019-01-15T04:53:35.238Z,25.17
2019-01-15T04:56:02.620Z,24.57
2019-01-15T04:58:30.062Z,25.80
2019-01-15T05:00:57.546Z,24.60
2019-01-15T05:03:24.958Z,23.32
2019-01-15T05:05:52.326Z,25.65
2019-01-15T05:08:19.687Z,23.73
2019-01-15T05:10:46.963Z,25.40
2019-01-15T05:13:14.392Z,24.60
2019-01-15T05:15:41.790Z,26.20
2019-01-15T05:18:09.232Z,25.17
2019-01-15T05:20:36.650Z,25.27
2019-01-15T05:23:04.105Z,23.70
2019-01-15T05:25:31.456Z,26.20
2019-01-15T05:27:58.901Z,22.75
2019-01-15T05:30:28.323Z,25.50
2019-01-15T05:32:55.809Z,25.80
2019-01-15T05:35:23.960Z,27.95
2019-01-15T05:37:51.318Z,26.15
2019-01-15T05:40:18.661Z,27.05
2019-01-15T05:42:46.027Z,27.73
2019-01-15T05:45:18.582Z,21.07
2019-01-15T05:47:46.666Z,26.23
2019-01-15T05:50:17.604Z,30.15
2019-01-15T05:52:44.972Z,21.55
2019-01-15T05:55:13.352Z,24.98
2019-01-15T05:57:40.618Z,25.50
2019-01-15T06:00:08.658Z,22.35
2019-01-15T06:02:36.024Z,23.90
2019-01-15T06:05:04.880Z,21.70
2019-01-15T06:07:33.837Z,19.15
2019-01-15T06:10:01.458Z,20.15
2019-01-15T06:12:28.952Z,18.20
2019-01-15T06:14:56.182Z,19.02
2019-01-15T06:17:23.537Z,19.15
2019-01-15T06:19:50.909Z,17.87
2019-01-15T06:22:18.274Z,18.23
2019-01-15T06:24:45.699Z,14.98
2019-01-15T06:27:13.140Z,15.23
2019-01-15T06:29:40.544Z,15.95
2019-01-15T06:32:07.943Z,11.55
2019-01-15T06:34:35.301Z,12.50
2019-01-15T06:37:02.645Z,13.25
2019-01-15T06:39:30.027Z,10.30
2019-01-15T06:41:57.472Z,11.60
2019-01-15T06:44:25.050Z,13.13
2019-01-15T06:46:52.641Z,11.63
2019-01-15T06:49:20.008Z,13.22
2019-01-15T06:51:47.679Z,13.53
2019-01-15T06:54:15.019Z,10.53
2019-01-15T06:56:42.430Z,10.78
2019-01-15T06:59:09.897Z,9.50
2019-01-15T07:01:37.280Z,12.15
2019-01-15T07:04:04.810Z,11.70
2019-01-15T07:06:32.453Z,11.97
2019-01-15T07:09:06.444Z,12.63
2019-01-15T07:11:33.822Z,14.23
2019-01-15T07:14:01.216Z,14.18
2019-01-15T07:16:29.060Z,15.40
2019-01-15T07:18:56.440Z,16.62
2019-01-15T07:21:24.098Z,19.23
2019-01-15T07:23:52.044Z,17.52
2019-01-15T07:26:19.417Z,17.35
2019-01-15T07:28:46.813Z,16.07
2019-01-15T07:31:14.252Z,20.77
2019-01-15T07:33:41.601Z,16.85
2019-01-15T07:36:08.945Z,11.03
2019-01-15T07:38:36.293Z,14.25
2019-01-15T07:41:03.654Z,16.17
2019-01-15T07:43:31.051Z,16.97
2019-01-15T07:45:58.428Z,13.38
2019-01-15T07:48:25.927Z,18.57
2019-01-15T07:50:53.467Z,16.42
2019-01-15T07:53:20.815Z,17.85
2019-01-15T07:55:48.173Z,15.58
2019-01-15T07:58:15.501Z,15.30
2019-01-15T08:00:42.931Z,21.05
2019-01-15T08:03:10.266Z,20.65
2019-01-15T08:05:37.737Z,18.92
2019-01-15T08:08:05.189Z,16.07
2019-01-15T08:10:32.595Z,21.60
2019-01-15T08:13:00.001Z,23.38
2019-01-15T08:15:27.431Z,21.07
2019-01-15T08:17:54.799Z,18.48
2019-01-15T08:20:22.138Z,24.85
2019-01-15T08:22:49.495Z,21.02
2019-01-15T08:25:16.885Z,25.95
2019-01-15T08:27:44.361Z,27.27
2019-01-15T08:30:22.969Z,27.62
2019-01-15T08:32:50.554Z,23.90
2019-01-15T08:35:17.891Z,22.60
2019-01-15T08:37:45.285Z,26.50
2019-01-15T08:40:13.190Z,26.07
2019-01-15T08:42:40.530Z,27.62
2019-01-15T08:45:08.285Z,25.20
2019-01-15T08:47:37.329Z,25.80
2019-01-15T08:50:06.799Z,26.02
2019-01-15T08:52:34.165Z,27.15
2019-01-15T08:55:01.546Z,27.70
2019-01-15T08:57:28.999Z,27.98
2019-01-15T08:59:56.313Z,28.02
2019-01-15T09:02:23.941Z,26.30
2019-01-15T09:04:51.336Z,28.80
2019-01-15T09:07:18.689Z,24.07
2019-01-15T09:09:46.063Z,31.33
2019-01-15T09:12:13.481Z,25.32
2019-01-15T09:14:40.836Z,22.58
2019-01-15T09:17:11.095Z,30.32
2019-01-15T09:19:37.525Z,31.17
2019-01-15T09:22:04.893Z,29.57
2019-01-15T09:24:32.253Z,27.00
2019-01-15T09:26:59.601Z,31.93
2019-01-15T09:29:27.002Z,34.43
2019-01-15T09:31:54.314Z,35.35
2019-01-15T09:34:22.016Z,33.43
2019-01-15T09:36:49.456Z,27.43
2019-01-15T09:39:16.838Z,27.40
2019-01-15T09:41:44.496Z,25.80
2019-01-15T09:44:11.871Z,30.40
2019-01-15T09:46:39.192Z,28.87
2019-01-15T09:49:06.597Z,28.47
2019-01-15T09:51:33.860Z,32.50
2019-01-15T09:54:01.320Z,26.40
2019-01-15T09:56:28.640Z,23.67
2019-01-15T09:58:56.102Z,22.83
2019-01-15T10:01:23.378Z,29.60
2019-01-15T10:03:50.707Z,25.63
2019-01-15T10:06:18.072Z,33.73
2019-01-15T10:08:45.412Z,30.87
2019-01-15T10:11:12.822Z,28.63
2019-01-15T10:13:40.145Z,34.70
2019-01-15T10:16:07.501Z,28.10
2019-01-15T10:18:34.876Z,24.40
2019-01-15T10:21:02.247Z,23.23
2019-01-15T10:23:29.609Z,25.52
2019-01-15T10:25:57.051Z,30.20
2019-01-15T10:28:24.521Z,25.43
2019-01-15T10:31:27.449Z,25.08
2019-01-15T10:33:59.155Z,28.00
2019-01-15T10:36:25.570Z,28.17
2019-01-15T10:38:52.993Z,22.87
2019-01-15T10:41:20.493Z,25.93
2019-01-15T10:43:47.851Z,25.20
2019-01-15T10:46:15.199Z,23.03
2019-01-15T10:48:42.595Z,20.67
2019-01-15T10:51:09.931Z,19.17
2019-01-15T10:53:37.311Z,24.47
2019-01-15T10:56:04.650Z,20.07
2019-01-15T10:58:32.817Z,22.00
2019-01-15T11:01:00.182Z,23.73
2019-01-15T11:03:27.646Z,22.20
2019-01-15T11:05:55.029Z,16.60
2019-01-15T11:08:22.277Z,16.43
2019-01-15T11:10:49.645Z,20.17
2019-01-15T11:13:17.017Z,16.67
2019-01-15T11:15:44.401Z,12.30
2019-01-15T11:18:11.857Z,10.60
2019-01-15T11:20:39.226Z,16.13
2019-01-15T11:23:06.678Z,15.83
2019-01-15T11:25:34.026Z,13.60
2019-01-15T11:28:01.409Z,12.50
2019-01-15T11:30:28.813Z,10.40
2019-01-15T11:32:56.190Z,11.43
2019-01-15T11:35:23.587Z,13.80
2019-01-15T11:37:50.826Z,11.20
2019-01-15T11:40:18.278Z,12.53
2019-01-15T11:42:45.621Z,16.57
2019-01-15T11:45:13.041Z,15.93
2019-01-15T11:47:40.384Z,16.90
2019-01-15T11:50:10.522Z,11.63
2019-01-15T11:52:37.854Z,10.83
2019-01-15T11:55:05.652Z,10.97
2019-01-15T11:57:33.151Z,9.97
2019-01-15T12:00:00.519Z,10.87
2019-01-15T12:02:43.411Z,13.00
2019-01-15T12:05:28.777Z,12.93
2019-01-15T12:08:14.062Z,9.67
2019-01-15T12:10:59.055Z,11.77
2019-01-15T12:13:44.594Z,10.83
2019-01-15T12:16:39.978Z,10.30
2019-01-15T12:19:35.458Z,11.93
2019-01-15T12:22:21.065Z,10.67
2019-01-15T12:25:20.869Z,10.63
2019-01-15T12:28:06.395Z,9.83
2019-01-15T12:30:51.839Z,12.83
2019-01-15T12:33:41.005Z,7.27
2019-01-15T12:36:37.103Z,12.53
2019-01-15T12:39:24.561Z,11.60
2019-01-15T12:42:10.267Z,11.60
2019-01-15T12:44:55.795Z,11.07
2019-01-15T12:47:41.433Z,10.87
2019-01-15T12:50:46.520Z,14.40
2019-01-15T12:53:50.392Z,13.00
2019-01-15T12:56:46.000Z,11.30
2019-01-15T12:59:32.876Z,9.87
2019-01-15T13:02:19.728Z,9.33
2019-01-15T13:05:21.488Z,12.67
2019-01-15T13:08:05.570Z,13.40
2019-01-15T13:11:01.005Z,12.20
2019-01-15T13:13:47.306Z,11.47
2019-01-15T13:16:38.520Z,9.87
2019-01-15T13:19:24.359Z,9.00
2019-01-15T13:22:09.398Z,9.77
2019-01-15T13:24:54.439Z,10.03
2019-01-15T13:27:46.167Z,10.33
2019-01-15T13:30:33.265Z,8.20
2019-01-15T13:33:25.614Z,13.73
2019-01-15T13:36:08.203Z,10.67
2019-01-15T13:38:43.440Z,11.30
2019-01-15T13:41:42.019Z,14.77
2019-01-15T13:44:37.542Z,11.37
2019-01-15T13:47:22.795Z,9.87
2019-01-15T13:50:08.184Z,11.30
2019-01-15T13:52:48.980Z,10.03
2019-01-15T13:55:34.393Z,8.33
2019-01-15T13:58:35.906Z,10.77
2019-01-15T14:01:25.352Z,11.43
2019-01-15T14:04:06.862Z,16.20
2019-01-15T14:06:45.757Z,13.70
2019-01-15T14:09:41.694Z,8.80
2019-01-15T14:12:20.238Z,8.07
2019-01-15T14:15:10.362Z,10.20
2019-01-15T14:17:56.847Z,12.83
2019-01-15T14:20:49.366Z,8.03
2019-01-15T14:23:42.007Z,6.00
2019-01-15T14:26:47.098Z,8.20
2019-01-15T14:29:32.379Z,7.67
2019-01-15T14:32:13.305Z,10.43
2019-01-15T14:34:59.323Z,12.60
2019-01-15T14:37:52.590Z,10.60
2019-01-15T14:40:39.471Z,11.73
2019-01-15T14:43:28.851Z,9.90
2019-01-15T14:46:18.220Z,9.03
2019-01-15T14:48:52.006Z,10.17
2019-01-15T14:51:40.044Z,7.67
2019-01-15T14:54:36.187Z,10.00
2019-01-15T14:57:15.747Z,9.27
2019-01-15T15:00:08.779Z,7.03
2019-01-15T15:02:54.265Z,8.27
2019-01-15T15:05:49.791Z,8.57
2019-01-15T15:08:35.044Z,6.03
2019-01-15T15:11:25.949Z,8.60
2019-01-15T15:14:25.099Z,13.27
2019-01-15T15:17:10.691Z,8.80
2019-01-15T15:20:01.381Z,11.27
2019-01-15T15:22:45.009Z,11.57
2019-01-15T15:25:30.366Z,9.33
2019-01-15T15:28:17.334Z,8.73
2019-01-15T15:31:02.913Z,7.43
2019-01-15T15:33:49.877Z,9.23
2019-01-15T15:36:35.297Z,10.37
2019-01-15T15:39:18.159Z,16.60
2019-01-15T15:42:08.352Z,10.50
2019-01-15T15:45:09.903Z,6.73
2019-01-15T15:47:55.424Z,9.17
2019-01-15T15:51:00.617Z,9.90
2019-01-15T15:53:50.233Z,7.20
2019-01-15T15:56:33.591Z,7.13
2019-01-15T15:59:29.266Z,8.73
2019-01-15T16:02:18.650Z,11.07
2019-01-15T16:05:04.144Z,10.43
2019-01-15T16:08:03.288Z,11.10
2019-01-15T16:10:48.623Z,12.33
2019-01-15T16:13:41.389Z,12.97
2019-01-15T16:16:30.176Z,9.17
2019-01-15T16:19:16.730Z,10.00
2019-01-15T16:22:02.294Z,8.40
2019-01-15T16:24:46.596Z,7.43
2019-01-15T16:27:33.973Z,11.53
2019-01-15T16:30:32.532Z,8.78
2019-01-15T16:33:17.538Z,7.73
2019-01-15T16:36:04.436Z,6.37
2019-01-15T16:39:00.217Z,8.37
2019-01-15T16:41:47.115Z,9.13
2019-01-15T16:44:37.143Z,5.90
2019-01-15T16:47:32.683Z,6.90
2019-01-15T16:50:12.115Z,8.53
2019-01-15T16:53:08.173Z,8.40
2019-01-15T16:55:53.390Z,7.25
2019-01-15T16:58:35.656Z,10.53
2019-01-15T17:01:18.904Z,13.07
2019-01-15T17:04:09.471Z,11.27
2019-01-15T17:06:59.141Z,12.83
2019-01-15T17:09:44.769Z,14.73
2019-01-15T17:12:41.733Z,13.08
2019-01-15T17:15:27.275Z,16.87
2019-01-15T17:18:16.713Z,13.90
2019-01-15T17:21:09.497Z,21.43
2019-01-15T17:23:58.931Z,15.70
2019-01-15T17:26:51.997Z,18.13
2019-01-15T17:29:37.901Z,12.47
2019-01-15T17:32:24.803Z,16.10
2019-01-15T17:35:11.695Z,8.87
2019-01-15T17:37:58.588Z,11.93
2019-01-15T17:41:00.697Z,14.23
2019-01-15T17:43:47.565Z,11.17
2019-01-15T17:46:32.952Z,10.87
2019-01-15T17:49:22.858Z,11.50
2019-01-15T17:52:21.886Z,11.70
2019-01-15T17:55:08.774Z,9.87
2019-01-15T17:57:55.629Z,12.27
2019-01-15T18:00:57.400Z,15.40
2019-01-15T18:03:53.206Z,11.47
2019-01-15T18:06:39.437Z,10.80
2019-01-15T18:09:17.055Z,12.98
2019-01-15T18:12:02.227Z,8.90
2019-01-15T18:14:45.482Z,11.12
2019-01-15T18:17:30.698Z,11.60
2019-01-15T18:20:15.319Z,13.57
2019-01-15T18:23:01.872Z,9.13
2019-01-15T18:25:48.838Z,12.18
2019-01-15T18:28:34.057Z,8.50
2019-01-15T18:31:32.247Z,10.10
2019-01-15T18:34:15.499Z,12.80
2019-01-15T18:37:01.589Z,10.87
2019-01-15T18:39:48.439Z,9.43
2019-01-15T18:42:33.797Z,9.83
2019-01-15T18:45:25.619Z,12.37
2019-01-15T18:48:12.556Z,10.00
2019-01-15T18:51:10.156Z,8.47
2019-01-15T18:54:06.170Z,11.03
2019-01-15T18:56:50.059Z,9.38
2019-01-15T18:59:35.105Z,13.83
2019-01-15T19:02:22.121Z,13.97
2019-01-15T19:04:59.260Z,8.77
2019-01-15T19:07:44.787Z,12.83
2019-01-15T19:10:29.847Z,8.03
2019-01-15T19:13:09.817Z,13.63
2019-01-15T19:15:55.136Z,11.33
2019-01-15T19:18:48.160Z,13.70
2019-01-15T19:21:43.971Z,10.13
2019-01-15T19:24:29.382Z,12.07
2019-01-15T19:27:14.650Z,9.00
2019-01-15T19:30:07.177Z,8.90
2019-01-15T19:32:54.079Z,8.23
2019-01-15T19:35:50.037Z,7.53
2019-01-15T19:38:35.193Z,8.83
2019-01-15T19:41:31.332Z,10.55
2019-01-15T19:44:18.368Z,7.60
2019-01-15T19:47:24.221Z,7.17
2019-01-15T19:50:26.233Z,9.10
2019-01-15T19:53:11.645Z,8.60
2019-01-15T19:56:13.374Z,9.83
2019-01-15T19:59:03.290Z,9.23
2019-01-15T20:02:02.459Z,9.78
2019-01-15T20:04:52.125Z,6.60
2019-01-15T20:07:45.235Z,9.27
2019-01-15T20:10:47.258Z,7.87
2019-01-15T20:13:30.039Z,9.50
2019-01-15T20:16:25.591Z,11.50
2019-01-15T20:19:18.645Z,9.27
2019-01-15T20:22:13.590Z,7.20
2019-01-15T20:24:57.257Z,7.10
2019-01-15T20:28:02.400Z,7.67
2019-01-15T20:30:38.777Z,6.50
2019-01-15T20:33:21.965Z,7.97
2019-01-15T20:36:26.588Z,7.10
2019-01-15T20:39:12.053Z,7.07
2019-01-15T20:41:48.794Z,10.80
2019-01-15T20:44:53.629Z,7.20
2019-01-15T20:47:52.973Z,5.87
2019-01-15T20:50:37.556Z,6.70
2019-01-15T20:53:17.873Z,7.15
2019-01-15T20:56:10.373Z,8.70
2019-01-15T20:59:12.208Z,8.15
2019-01-15T21:01:52.197Z,8.45
2019-01-15T21:04:37.521Z,7.90
2019-01-15T21:07:22.817Z,7.87
2019-01-15T21:10:11.601Z,7.80
2019-01-15T21:13:07.325Z,6.60
2019-01-15T21:15:50.250Z,8.43
2019-01-15T21:18:35.563Z,7.57
2019-01-15T21:21:16.307Z,8.53
2019-01-15T21:24:21.229Z,7.33
2019-01-15T21:27:11.288Z,5.23
2019-01-15T21:30:05.905Z,7.75
2019-01-15T21:32:55.484Z,6.80
2019-01-15T21:35:40.833Z,6.17
2019-01-15T21:38:26.094Z,6.42
2019-01-15T21:41:11.358Z,6.92
2019-01-15T21:44:07.691Z,7.83
2019-01-15T21:46:48.091Z,7.83
2019-01-15T21:49:35.164Z,7.93
2019-01-15T21:52:29.208Z,5.62
2019-01-15T21:55:13.085Z,8.13
2019-01-15T21:58:19.207Z,10.28
2019-01-15T22:01:01.581Z,6.87
2019-01-15T22:04:06.331Z,8.63
2019-01-15T22:06:54.684Z,9.83
2019-01-15T22:09:39.933Z,6.75
2019-01-15T22:12:20.177Z,7.78
2019-01-15T22:15:02.489Z,7.05
2019-01-15T22:17:37.280Z,5.70
2019-01-15T22:20:27.930Z,6.77
2019-01-15T22:23:11.574Z,5.73
2019-01-15T22:25:56.987Z,5.53
2019-01-15T22:28:43.723Z,4.73
2019-01-15T22:31:28.862Z,5.95
2019-01-15T22:34:18.745Z,4.60
2019-01-15T22:37:06.083Z,4.80
2019-01-15T22:39:44.013Z,4.42
2019-01-15T22:42:36.671Z,5.03
2019-01-15T22:45:22.661Z,3.50
2019-01-15T22:48:08.019Z,5.47
2019-01-15T22:50:55.653Z,6.50
2019-01-15T22:53:40.940Z,3.27
2019-01-15T22:56:27.835Z,4.90
2019-01-15T22:59:20.854Z,3.92
2019-01-15T23:02:10.492Z,4.33
2019-01-15T23:04:52.345Z,4.73
2019-01-15T23:07:45.120Z,10.90
2019-01-15T23:10:26.661Z,4.47
2019-01-15T23:13:04.023Z,5.53
2019-01-15T23:15:50.894Z,6.40
2019-01-15T23:18:34.833Z,4.40
2019-01-15T23:21:20.387Z,4.65
2019-01-15T23:24:10.933Z,8.33
2019-01-15T23:27:00.423Z,6.47
2019-01-15T23:29:52.699Z,7.50
2019-01-15T23:32:37.824Z,3.30
2019-01-15T23:35:24.353Z,5.00
2019-01-15T23:38:17.145Z,6.00
2019-01-15T23:41:02.539Z,3.80
2019-01-15T23:43:48.917Z,3.83
2019-01-15T23:46:43.001Z,3.73
2019-01-15T23:49:35.937Z,4.33
2019-01-15T23:52:20.217Z,5.73
2019-01-15T23:54:57.385Z,3.47
2019-01-15T23:58:02.273Z,4.63
